Time;durP1;ratioP1;P1;durP2;ratioP2;P2;SDS_P1;SDS_P2;PMS_P1;PMS_P2;Temp;Humidity;BMP_temperature;BMP_pressure;BME280_temperature;BME280_humidity;BME280_pressure;Samples;Min_cycle;Max_cycle;Signal;HPM_P1;HPM_P2
2021/10/08 00:00:12;;;;;;;;;;;;;;;8.09;79.19;99219.80;1638816;86;26252;-84
2021/10/08 00:02:39;;;;;;;;;;;;;;;8.08;79.22;99219.41;1644592;86;20482;-88
2021/10/08 00:05:05;;;;;;;;;;;;;;;8.17;79.26;99222.91;1634421;86;20241;-84
2021/10/08 00:07:31;;;;;;;;;;;;;;;8.32;79.33;99225.66;1637085;86;25351;-88
2021/10/08 00:09:57;;;;;;;;;;;;;;;8.37;79.39;99225.43;1627484;86;22048;-88
2021/10/08 00:12:24;;;;;;;;;;;;;;;8.35;79.43;99227.25;1630324;85;21162;-84
2021/10/08 00:14:49;;;;;;;;;;;;;;;8.25;79.40;99232.04;1628272;86;24521;-84
2021/10/08 00:17:15;;;;;;;;;;;;;;;8.16;79.37;99225.13;1637104;86;20321;-88
2021/10/08 00:19:41;;;;;;;;;;;;;;;8.09;79.33;99238.89;1635814;86;20249;-88
2021/10/08 00:22:08;;;;;;;;;;;;;;;8.07;79.31;99236.84;1634121;86;20336;-84
2021/10/08 00:24:34;;;;;;;;;;;;;;;8.01;79.27;99235.82;1631324;86;25902;-89
2021/10/08 00:27:00;;;;;;;;;;;;;;;7.97;79.25;99227.28;1639554;86;23900;-90
2021/10/08 00:29:26;;;;;;;;;;;;;;;8.08;79.25;99229.84;1633093;86;20360;-90
2021/10/08 00:31:53;;;;;;;;;;;;;;;8.25;79.31;99237.71;1633755;86;25491;-89
2021/10/08 00:34:19;;;;;;;;;;;;;;;8.19;79.32;99236.70;1631832;86;22861;-87
2021/10/08 00:36:45;;;;;;;;;;;;;;;8.07;79.30;99237.30;1637521;86;26051;-87
2021/10/08 00:39:11;;;;;;;;;;;;;;;7.97;79.25;99239.46;1630372;86;25105;-87
2021/10/08 00:41:38;;;;;;;;;;;;;;;7.93;79.24;99238.77;1632381;86;20256;-87
2021/10/08 00:44:12;;;;;;;;;;;;;;;8.04;79.23;99240.03;1638107;86;25637;-86
2021/10/08 00:46:44;;;;;;;;;;;;;;;8.17;79.25;99243.31;1634761;86;22608;-86
2021/10/08 00:49:08;;;;;;;;;;;;;;;8.27;79.26;99241.10;1635935;86;21285;-84
2021/10/08 00:51:34;;;;;;;;;;;;;;;8.31;79.22;99247.43;1631474;86;24404;-88
2021/10/08 00:54:00;;;;;;;;;;;;;;;8.35;79.20;99246.81;1634737;86;20259;-88
2021/10/08 00:56:29;;;;;;;;;;;;;;;8.39;79.17;99249.69;1629076;86;20355;-88
2021/10/08 00:58:56;;;;;;;;;;;;;;;8.36;79.13;99256.33;1612959;86;22009;-86
2021/10/08 01:01:22;;;;;;;;;;;;;;;8.24;79.11;99251.20;1637355;86;26002;-89
2021/10/08 01:03:48;;;;;;;;;;;;;;;8.08;79.06;99253.30;1631885;86;24400;-89
2021/10/08 01:06:14;;;;;;;;;;;;;;;7.96;79.00;99254.25;1637353;86;20335;-89
2021/10/08 01:08:40;;;;;;;;;;;;;;;7.94;78.96;99249.59;1628500;86;20350;-88
2021/10/08 01:11:06;;;;;;;;;;;;;;;7.88;78.92;99252.92;1636744;86;21986;-84
2021/10/08 01:13:32;;;;;;;;;;;;;;;7.86;78.87;99254.75;1629396;86;26188;-89
2021/10/08 01:15:59;;;;;;;;;;;;;;;7.88;78.86;99255.08;1628034;86;24153;-84
2021/10/08 01:18:25;;;;;;;;;;;;;;;7.81;78.85;99254.96;1639989;86;20255;-87
2021/10/08 01:20:57;;;;;;;;;;;;;;;7.71;78.79;99262.81;1631641;86;24839;-88
2021/10/08 01:23:24;;;;;;;;;;;;;;;7.67;78.79;99266.93;1633891;86;22691;-86
2021/10/08 01:25:50;;;;;;;;;;;;;;;7.65;78.76;99264.84;1630025;86;25814;-86
2021/10/08 01:28:19;;;;;;;;;;;;;;;7.64;78.79;99260.57;1640936;86;24455;-86
2021/10/08 01:30:44;;;;;;;;;;;;;;;7.76;78.80;99262.14;1633693;86;20192;-86
2021/10/08 01:33:10;;;;;;;;;;;;;;;7.83;78.82;99261.42;1638123;86;24850;-88
2021/10/08 01:35:41;;;;;;;;;;;;;;;7.74;78.83;99269.20;1633203;86;22043;-89
2021/10/08 01:38:04;;;;;;;;;;;;;;;7.75;78.82;99257.84;1633698;86;26019;-89
2021/10/08 01:40:31;;;;;;;;;;;;;;;7.74;78.81;99270.96;1635078;86;24690;-89
2021/10/08 01:42:57;;;;;;;;;;;;;;;7.76;78.80;99272.56;1639070;86;20277;-86
2021/10/08 01:45:23;;;;;;;;;;;;;;;7.74;78.81;99274.41;1615222;86;25005;-85
2021/10/08 01:47:49;;;;;;;;;;;;;;;7.67;78.78;99279.95;1632621;86;21970;-85
2021/10/08 01:50:16;;;;;;;;;;;;;;;7.62;78.76;99276.26;1630485;86;26091;-86
2021/10/08 01:52:42;;;;;;;;;;;;;;;7.58;78.77;99272.11;1634051;86;24542;-84
2021/10/08 01:55:16;;;;;;;;;;;;;;;7.60;78.75;99262.89;1637936;86;20196;-85
2021/10/08 01:57:43;;;;;;;;;;;;;;;7.63;78.79;99266.23;1629680;86;24745;-85
2021/10/08 02:00:15;;;;;;;;;;;;;;;7.58;78.80;99262.98;1631474;87;22652;-85
2021/10/08 02:02:41;;;;;;;;;;;;;;;7.52;78.80;99267.16;1641231;87;25967;-84
2021/10/08 02:05:08;;;;;;;;;;;;;;;7.52;78.84;99263.26;1624805;87;24434;-84
2021/10/08 02:07:34;;;;;;;;;;;;;;;7.51;78.88;99268.08;1600888;87;20154;-85
2021/10/08 02:10:05;;;;;;;;;;;;;;;7.48;78.92;99278.16;1628016;87;24725;-84
2021/10/08 02:12:31;;;;;;;;;;;;;;;7.48;78.98;99267.73;1625802;87;22009;-84
2021/10/08 02:14:57;;;;;;;;;;;;;;;7.57;79.03;99270.41;1631997;87;26137;-87
2021/10/08 02:17:23;;;;;;;;;;;;;;;7.68;79.11;99279.90;1633878;87;24486;-84
2021/10/08 02:19:51;;;;;;;;;;;;;;;7.78;79.18;99278.56;1624052;87;20219;-84
2021/10/08 02:22:17;;;;;;;;;;;;;;;7.85;79.22;99279.98;1629256;87;24775;-89
2021/10/08 02:24:43;;;;;;;;;;;;;;;7.80;79.27;99279.81;1635072;87;21909;-88
2021/10/08 02:27:11;;;;;;;;;;;;;;;7.77;79.30;99277.32;1626837;87;26041;-89
2021/10/08 02:29:37;;;;;;;;;;;;;;;7.86;79.35;99281.66;1635779;87;24618;-87
2021/10/08 02:32:03;;;;;;;;;;;;;;;7.82;79.38;99285.77;1625020;87;20309;-89
2021/10/08 02:34:30;;;;;;;;;;;;;;;7.74;79.41;99289.20;1620193;87;24526;-89
2021/10/08 02:36:56;;;;;;;;;;;;;;;7.58;79.43;99282.53;1620038;87;21928;-88
2021/10/08 02:39:22;;;;;;;;;;;;;;;7.53;79.45;99285.30;1626771;87;26023;-89
2021/10/08 02:41:48;;;;;;;;;;;;;;;7.56;79.49;99286.48;1626243;87;24502;-88
2021/10/08 02:44:14;;;;;;;;;;;;;;;7.56;79.54;99289.55;1630314;87;20256;-89
2021/10/08 02:46:41;;;;;;;;;;;;;;;7.56;79.59;99290.40;1624491;87;24728;-89
2021/10/08 02:49:11;;;;;;;;;;;;;;;7.56;79.67;99290.40;1628880;87;21939;-89
2021/10/08 02:51:35;;;;;;;;;;;;;;;7.59;79.71;99294.61;1633961;87;25983;-90
2021/10/08 02:54:03;;;;;;;;;;;;;;;7.60;79.79;99305.88;1629601;87;25279;-90
2021/10/08 02:56:30;;;;;;;;;;;;;;;7.58;79.87;99302.88;1624675;85;20217;-90
2021/10/08 02:59:00;;;;;;;;;;;;;;;7.56;79.91;99303.88;1631385;87;25688;-87
2021/10/08 03:01:29;;;;;;;;;;;;;;;7.53;79.98;99308.75;1632721;87;21979;-85
2021/10/08 03:03:55;;;;;;;;;;;;;;;7.55;80.05;99314.75;1594758;87;25864;-88
2021/10/08 03:06:21;;;;;;;;;;;;;;;7.58;80.13;99311.62;1635072;87;24443;-88
2021/10/08 03:08:49;;;;;;;;;;;;;;;7.55;80.22;99304.78;1633280;87;20322;-84
2021/10/08 03:11:15;;;;;;;;;;;;;;;7.52;80.26;99314.05;1635214;87;24767;-84
2021/10/08 03:13:41;;;;;;;;;;;;;;;7.50;80.34;99316.70;1636679;87;22263;-86
2021/10/08 03:16:07;;;;;;;;;;;;;;;7.50;80.40;99314.10;1631770;87;21786;-84
2021/10/08 03:18:39;;;;;;;;;;;;;;;7.54;80.48;99317.41;1630576;87;25310;-89
2021/10/08 03:21:05;;;;;;;;;;;;;;;7.52;80.54;99317.95;1628141;87;20266;-88
2021/10/08 03:23:33;;;;;;;;;;;;;;;7.51;80.61;99317.10;1640618;87;24735;-88
2021/10/08 03:25:59;;;;;;;;;;;;;;;7.50;80.68;99320.61;1621360;87;22804;-84
2021/10/08 03:28:25;;;;;;;;;;;;;;;7.49;80.75;99320.67;1631654;86;21031;-84
2021/10/08 03:30:51;;;;;;;;;;;;;;;7.56;80.82;99322.11;1631718;86;24460;-84
2021/10/08 03:33:17;;;;;;;;;;;;;;;7.62;80.91;99323.15;1633412;86;20272;-83
2021/10/08 03:35:49;;;;;;;;;;;;;;;7.71;81.01;99321.43;1630384;86;25543;-88
2021/10/08 03:38:19;;;;;;;;;;;;;;;7.81;81.15;99329.68;1630364;86;22161;-88
2021/10/08 03:43:31;;;;;;;;;;;;;;;7.80;81.27;99330.62;1630620;86;24547;-85
2021/10/08 03:46:01;;;;;;;;;;;;;;;7.81;81.31;99327.08;1630909;86;20359;-86
2021/10/08 03:48:49;;;;;;;;;;;;;;;7.82;81.38;99330.08;1633145;86;24839;-89
2021/10/08 03:51:03;;;;;;;;;;;;;;;7.87;81.42;99334.17;1636101;86;22020;-86
2021/10/08 03:53:29;;;;;;;;;;;;;;;7.91;81.51;99334.41;1630616;86;25899;-88
2021/10/08 03:55:57;;;;;;;;;;;;;;;7.91;81.55;99331.80;1631463;86;24408;-89
2021/10/08 03:58:24;;;;;;;;;;;;;;;7.91;81.58;99333.11;1623654;86;20250;-89
2021/10/08 04:00:50;;;;;;;;;;;;;;;7.84;81.59;99328.26;1614926;87;24753;-88
2021/10/08 04:03:16;;;;;;;;;;;;;;;7.73;81.57;99331.34;1614561;87;21975;-88
2021/10/08 04:05:43;;;;;;;;;;;;;;;7.69;81.55;99333.67;1616423;87;26198;-88
2021/10/08 04:08:09;;;;;;;;;;;;;;;7.66;81.56;99329.91;1625491;87;24524;-88
2021/10/08 04:10:35;;;;;;;;;;;;;;;7.65;81.56;99325.60;1616567;87;20379;-86
2021/10/08 04:13:01;;;;;;;;;;;;;;;7.61;81.53;99332.32;1653313;86;24693;-84
2021/10/08 04:15:28;;;;;;;;;;;;;;;7.45;81.52;99330.84;1615223;87;22002;-86
2021/10/08 04:17:54;;;;;;;;;;;;;;;7.34;81.50;99338.26;1611469;87;25849;-88
2021/10/08 04:20:26;;;;;;;;;;;;;;;7.24;81.48;99340.86;1616927;87;25389;-89
2021/10/08 04:22:52;;;;;;;;;;;;;;;7.21;81.44;99339.67;1617288;87;20224;-89
2021/10/08 04:25:24;;;;;;;;;;;;;;;7.19;81.46;99348.02;1626902;87;25360;-89
2021/10/08 04:27:51;;;;;;;;;;;;;;;7.10;81.47;99347.92;1626420;87;22294;-88
2021/10/08 04:30:17;;;;;;;;;;;;;;;7.02;81.49;99351.31;1619864;87;26036;-86
2021/10/08 04:32:43;;;;;;;;;;;;;;;6.92;81.50;99360.41;1618369;87;24447;-84
2021/10/08 04:35:12;;;;;;;;;;;;;;;6.87;81.51;99357.14;1622556;87;20228;-88
2021/10/08 04:37:38;;;;;;;;;;;;;;;6.87;81.57;99359.75;1618068;87;24842;-86
2021/10/08 04:40:21;;;;;;;;;;;;;;;6.91;81.60;99363.91;1625305;87;22093;-89
2021/10/08 04:42:56;;;;;;;;;;;;;;;6.97;81.70;99363.22;1620169;87;26799;-88
2021/10/08 04:45:23;;;;;;;;;;;;;;;7.00;81.78;99368.28;1623562;87;24444;-85
2021/10/08 04:47:49;;;;;;;;;;;;;;;7.08;81.87;99366.69;1625791;87;20298;-84
2021/10/08 04:50:17;;;;;;;;;;;;;;;7.17;81.98;99364.14;1624291;87;24763;-86
2021/10/08 04:52:43;;;;;;;;;;;;;;;7.23;82.09;99367.80;1612925;87;22166;-84
2021/10/08 04:55:09;;;;;;;;;;;;;;;7.29;82.18;99372.30;1623321;87;26107;-84
2021/10/08 04:57:36;;;;;;;;;;;;;;;7.33;82.26;99362.14;1633329;87;24444;-88
2021/10/08 05:00:03;;;;;;;;;;;;;;;7.40;82.35;99367.95;1632584;87;20260;-88
2021/10/08 05:02:29;;;;;;;;;;;;;;;7.46;82.43;99372.91;1655711;85;24649;-86
2021/10/08 05:04:55;;;;;;;;;;;;;;;7.47;82.51;99375.42;1621651;87;22149;-88
2021/10/08 05:07:22;;;;;;;;;;;;;;;7.50;82.59;99371.85;1630917;87;25523;-85
2021/10/08 05:09:48;;;;;;;;;;;;;;;7.55;82.62;99379.86;1627269;87;24696;-85
2021/10/08 05:12:19;;;;;;;;;;;;;;;7.58;82.65;99380.20;1628530;87;20236;-86
2021/10/08 05:14:45;;;;;;;;;;;;;;;7.64;82.71;99381.70;1631008;87;24775;-89
2021/10/08 05:17:11;;;;;;;;;;;;;;;7.69;82.75;99380.56;1622812;87;22059;-83
2021/10/08 05:19:37;;;;;;;;;;;;;;;7.76;82.80;99384.61;1632330;87;26079;-88
2021/10/08 05:22:08;;;;;;;;;;;;;;;7.78;82.85;99379.34;1620574;87;24435;-86
2021/10/08 05:24:34;;;;;;;;;;;;;;;7.81;82.87;99388.30;1626882;87;20253;-88
2021/10/08 05:27:00;;;;;;;;;;;;;;;7.80;82.89;99391.37;1630909;87;24787;-85
2021/10/08 05:29:27;;;;;;;;;;;;;;;7.75;82.90;99395.94;1622273;87;21491;-84
2021/10/08 05:31:54;;;;;;;;;;;;;;;7.72;82.87;99392.63;1622422;87;25174;-85
2021/10/08 05:34:20;;;;;;;;;;;;;;;7.69;82.87;99397.50;1624524;87;24542;-86
2021/10/08 05:36:49;;;;;;;;;;;;;;;7.69;82.86;99400.59;1629439;87;20243;-86
2021/10/08 05:39:16;;;;;;;;;;;;;;;7.71;82.84;99401.34;1625121;87;24966;-85
2021/10/08 05:41:42;;;;;;;;;;;;;;;7.71;82.85;99400.89;1624662;87;22021;-87
2021/10/08 05:44:08;;;;;;;;;;;;;;;7.73;82.88;99400.84;1625435;87;26049;-86
2021/10/08 05:46:34;;;;;;;;;;;;;;;7.76;82.92;99408.51;1631229;87;24741;-89
2021/10/08 05:49:00;;;;;;;;;;;;;;;7.75;82.92;99408.11;1626837;87;20208;-89
2021/10/08 05:51:29;;;;;;;;;;;;;;;7.69;82.94;99410.52;1629275;87;24425;-88
2021/10/08 05:53:54;;;;;;;;;;;;;;;7.69;82.95;99412.31;1632481;86;21503;-87
2021/10/08 05:56:22;;;;;;;;;;;;;;;7.70;82.96;99411.38;1625574;87;26063;-88
2021/10/08 05:58:48;;;;;;;;;;;;;;;7.76;83.00;99420.23;1625314;87;24520;-86
2021/10/08 06:01:14;;;;;;;;;;;;;;;7.75;83.01;99421.14;1611530;87;20220;-86
2021/10/08 06:03:40;;;;;;;;;;;;;;;7.74;83.04;99417.72;1635529;87;24743;-87
2021/10/08 06:06:07;;;;;;;;;;;;;;;7.74;83.06;99417.72;1621053;87;22074;-88
2021/10/08 06:08:33;;;;;;;;;;;;;;;7.74;83.07;99424.23;1621001;86;26117;-87
2021/10/08 06:10:59;;;;;;;;;;;;;;;7.78;83.10;99423.18;1630597;87;24391;-89
2021/10/08 06:13:25;;;;;;;;;;;;;;;7.84;83.14;99429.44;1620541;87;20170;-88
2021/10/08 06:15:55;;;;;;;;;;;;;;;7.84;83.17;99430.73;1624670;87;25590;-88
2021/10/08 06:18:26;;;;;;;;;;;;;;;7.80;83.19;99436.15;1639839;87;22780;-89
2021/10/08 06:20:54;;;;;;;;;;;;;;;7.75;83.17;99431.11;1626804;87;26068;-85
2021/10/08 06:23:21;;;;;;;;;;;;;;;7.75;83.18;99439.38;1629336;87;24511;-85
2021/10/08 06:25:47;;;;;;;;;;;;;;;7.66;83.17;99443.69;1628903;87;20238;-87
2021/10/08 06:28:14;;;;;;;;;;;;;;;7.54;83.14;99450.24;1631734;87;24832;-87
2021/10/08 06:30:44;;;;;;;;;;;;;;;7.51;83.12;99460.80;1602512;87;20211;-84
2021/10/08 06:33:11;;;;;;;;;;;;;;;7.54;83.11;99458.91;1630807;87;26074;-83
2021/10/08 06:35:39;;;;;;;;;;;;;;;7.62;83.16;99456.00;1639529;87;25370;-88
2021/10/08 06:38:06;;;;;;;;;;;;;;;7.76;83.22;99453.66;1625536;87;20240;-88
2021/10/08 06:40:32;;;;;;;;;;;;;;;7.85;83.29;99455.89;1629088;87;24713;-83
2021/10/08 06:42:58;;;;;;;;;;;;;;;7.95;83.38;99454.58;1627615;86;21968;-85
2021/10/08 06:45:25;;;;;;;;;;;;;;;8.08;83.43;99454.03;1629911;87;21350;-85
2021/10/08 06:47:52;;;;;;;;;;;;;;;8.18;83.47;99456.66;1624106;87;23979;-85
2021/10/08 06:50:18;;;;;;;;;;;;;;;8.30;83.55;99458.73;1636393;87;20251;-88
2021/10/08 06:52:47;;;;;;;;;;;;;;;8.35;83.59;99458.91;1623617;87;24809;-85
2021/10/08 06:55:20;;;;;;;;;;;;;;;8.25;83.62;99459.36;1617869;87;21608;-87
2021/10/08 06:57:46;;;;;;;;;;;;;;;8.16;83.58;99459.77;1629002;87;26402;-88
2021/10/08 07:00:15;;;;;;;;;;;;;;;8.03;83.53;99457.29;1615124;87;20265;-88
2021/10/08 07:02:45;;;;;;;;;;;;;;;7.97;83.48;99459.70;1625032;87;20330;-87
2021/10/08 07:05:11;;;;;;;;;;;;;;;7.88;83.43;99465.32;1624276;87;24770;-87
2021/10/08 07:07:37;;;;;;;;;;;;;;;7.78;83.40;99462.72;1624835;87;22862;-87
2021/10/08 07:10:04;;;;;;;;;;;;;;;7.78;83.38;99462.27;1614639;87;26666;-84
2021/10/08 07:12:33;;;;;;;;;;;;;;;7.82;83.38;99468.19;1621208;87;24650;-84
2021/10/08 07:15:01;;;;;;;;;;;;;;;7.83;83.41;99460.31;1619578;87;20550;-85
2021/10/08 07:17:28;;;;;;;;;;;;;;;7.75;83.43;99467.59;1625310;87;24774;-85
2021/10/08 07:20:03;;;;;;;;;;;;;;;7.63;83.40;99474.63;1614144;87;21571;-87
2021/10/08 07:22:29;;;;;;;;;;;;;;;7.52;83.38;99480.28;1622040;87;25987;-88
2021/10/08 07:24:55;;;;;;;;;;;;;;;7.53;83.38;99479.80;1621677;87;24504;-87
2021/10/08 07:27:21;;;;;;;;;;;;;;;7.47;83.38;99485.28;1651787;86;20254;-86
2021/10/08 07:29:48;;;;;;;;;;;;;;;7.49;83.39;99487.36;1622291;87;20279;-85
2021/10/08 07:32:14;;;;;;;;;;;;;;;7.53;83.44;99485.02;1622150;87;22680;-88
2021/10/08 07:34:42;;;;;;;;;;;;;;;7.59;83.48;99487.37;1627682;87;20988;-83
2021/10/08 07:37:13;;;;;;;;;;;;;;;7.59;83.55;99493.88;1627896;87;24419;-85
2021/10/08 07:39:36;;;;;;;;;;;;;;;7.52;83.56;99487.25;1618796;87;20503;-84
2021/10/08 07:42:04;;;;;;;;;;;;;;;7.43;83.58;99488.91;1613728;87;24815;-84
2021/10/08 07:44:30;;;;;;;;;;;;;;;7.38;83.60;99486.94;1623772;87;22286;-86
2021/10/08 07:46:56;;;;;;;;;;;;;;;7.30;83.61;99487.71;1623907;87;26094;-86
2021/10/08 07:49:22;;;;;;;;;;;;;;;7.26;83.61;99489.57;1626212;87;24534;-84
2021/10/08 07:51:49;;;;;;;;;;;;;;;7.31;83.66;99494.14;1594557;87;33885;-85
2021/10/08 07:54:15;;;;;;;;;;;;;;;7.35;83.73;99491.83;1622723;87;24900;-83
2021/10/08 07:56:41;;;;;;;;;;;;;;;7.31;83.77;99501.13;1615477;87;22132;-86
2021/10/08 07:59:09;;;;;;;;;;;;;;;7.26;83.81;99500.44;1623797;87;21531;-88
2021/10/08 08:01:35;;;;;;;;;;;;;;;7.10;83.83;99487.17;1637252;87;24530;-88
2021/10/08 08:04:01;;;;;;;;;;;;;;;7.13;83.87;99498.79;1635867;87;20255;-88
2021/10/08 08:06:28;;;;;;;;;;;;;;;7.13;83.91;99499.64;1633740;87;25464;-84
2021/10/08 08:08:54;;;;;;;;;;;;;;;7.14;83.95;99500.48;1627612;87;22073;-83
2021/10/08 08:11:20;;;;;;;;;;;;;;;7.19;84.01;99507.66;1631711;87;26055;-84
2021/10/08 08:13:47;;;;;;;;;;;;;;;7.17;84.07;99516.42;1629389;87;24482;-84
2021/10/08 08:16:13;;;;;;;;;;;;;;;7.13;84.12;99507.90;1632228;87;20410;-85
2021/10/08 08:18:39;;;;;;;;;;;;;;;7.11;84.17;99511.00;1626961;87;24821;-83
2021/10/08 08:21:07;;;;;;;;;;;;;;;7.11;84.21;99513.16;1632027;87;21987;-85
2021/10/08 08:23:33;;;;;;;;;;;;;;;7.19;84.28;99513.32;1627452;85;25922;-87
2021/10/08 08:26:02;;;;;;;;;;;;;;;7.25;84.36;99511.78;1629596;87;20322;-88
2021/10/08 08:28:28;;;;;;;;;;;;;;;7.35;84.43;99508.76;1628052;87;20259;-84
2021/10/08 08:30:55;;;;;;;;;;;;;;;7.41;84.53;99505.06;1630531;87;24812;-86
2021/10/08 08:33:21;;;;;;;;;;;;;;;7.38;84.60;99513.83;1627501;87;22002;-86
2021/10/08 08:35:47;;;;;;;;;;;;;;;7.31;84.66;99514.16;1632454;87;21367;-86
2021/10/08 08:38:13;;;;;;;;;;;;;;;7.27;84.69;99518.61;1631129;87;20422;-84
2021/10/08 08:40:39;;;;;;;;;;;;;;;7.34;84.72;99508.81;1631298;87;20323;-84
2021/10/08 08:43:05;;;;;;;;;;;;;;;7.32;84.77;99514.06;1633052;87;20224;-86
2021/10/08 08:45:33;;;;;;;;;;;;;;;7.31;84.80;99520.66;1644907;87;20263;-86
2021/10/08 08:48:01;;;;;;;;;;;;;;;7.36;84.85;99514.81;1623657;87;26011;-88
2021/10/08 08:50:27;;;;;;;;;;;;;;;7.47;84.92;99509.55;1632930;87;24475;-86
2021/10/08 08:52:53;;;;;;;;;;;;;;;7.51;84.98;99520.26;1623575;87;20247;-84
2021/10/08 08:55:19;;;;;;;;;;;;;;;7.51;85.07;99520.71;1627234;87;24729;-83
2021/10/08 08:57:45;;;;;;;;;;;;;;;7.50;85.10;99511.19;1630120;87;22622;-83
2021/10/08 09:00:13;;;;;;;;;;;;;;;7.47;85.14;99514.75;1623529;87;21164;-83
2021/10/08 09:02:40;;;;;;;;;;;;;;;7.49;85.14;99518.61;1630408;87;24575;-88
2021/10/08 09:05:08;;;;;;;;;;;;;;;7.52;85.21;99520.66;1632289;86;20236;-88
2021/10/08 09:07:36;;;;;;;;;;;;;;;7.58;85.24;99516.11;1621390;86;24937;-83
2021/10/08 09:10:03;;;;;;;;;;;;;;;7.60;85.31;99517.72;1624049;87;21932;-83
2021/10/08 09:12:31;;;;;;;;;;;;;;;7.59;85.33;99522.53;1626803;87;26946;-83
2021/10/08 09:14:58;;;;;;;;;;;;;;;7.53;85.35;99524.08;1633509;87;24518;-84
2021/10/08 09:17:24;;;;;;;;;;;;;;;7.49;85.36;99522.06;1632218;87;20596;-89
2021/10/08 09:19:55;;;;;;;;;;;;;;;7.54;85.38;99527.09;1624152;87;24788;-88
2021/10/08 09:22:29;;;;;;;;;;;;;;;7.56;85.43;99522.22;1616233;87;21907;-87
2021/10/08 09:24:57;;;;;;;;;;;;;;;7.55;85.45;99529.64;1626558;87;26073;-83
2021/10/08 09:27:23;;;;;;;;;;;;;;;7.50;85.46;99530.73;1624965;87;24439;-83
2021/10/08 09:29:51;;;;;;;;;;;;;;;7.45;85.47;99536.58;1618083;87;20733;-83
2021/10/08 09:32:18;;;;;;;;;;;;;;;7.35;85.45;99535.25;1630810;87;24854;-84
2021/10/08 09:34:44;;;;;;;;;;;;;;;7.25;85.44;99536.06;1626826;87;21225;-84
2021/10/08 09:37:12;;;;;;;;;;;;;;;7.24;85.44;99533.52;1631491;87;25999;-84
2021/10/08 09:39:38;;;;;;;;;;;;;;;7.17;85.43;99532.05;1625610;87;24477;-84
2021/10/08 09:42:07;;;;;;;;;;;;;;;7.15;85.44;99532.09;1629331;87;20265;-87
2021/10/08 09:44:35;;;;;;;;;;;;;;;7.18;85.47;99539.80;1632753;87;25444;-87
2021/10/08 09:47:09;;;;;;;;;;;;;;;7.14;85.51;99540.39;1620899;87;22106;-86
2021/10/08 09:49:36;;;;;;;;;;;;;;;7.12;85.54;99545.23;1618150;87;26983;-87
2021/10/08 09:52:24;;;;;;;;;;;;;;;7.05;85.54;99545.92;1618698;87;24433;-88
2021/10/08 09:54:53;;;;;;;;;;;;;;;7.00;85.54;99549.15;1623464;87;20287;-87
2021/10/08 09:57:21;;;;;;;;;;;;;;;6.93;85.55;99547.67;1634341;86;24914;-86
2021/10/08 09:59:48;;;;;;;;;;;;;;;6.87;85.57;99545.78;1624583;85;21499;-83
2021/10/08 10:02:14;;;;;;;;;;;;;;;6.82;85.56;99548.52;1618148;87;26581;-83
2021/10/08 10:04:44;;;;;;;;;;;;;;;6.80;85.59;99551.66;1621059;87;24527;-85
2021/10/08 10:07:12;;;;;;;;;;;;;;;6.85;85.61;99551.03;1621155;87;20334;-88
2021/10/08 10:09:38;;;;;;;;;;;;;;;6.96;85.69;99543.67;1623360;87;24778;-88
2021/10/08 10:12:04;;;;;;;;;;;;;;;7.13;85.75;99536.53;1615076;87;20832;-84
2021/10/08 10:14:31;;;;;;;;;;;;;;;7.24;85.88;99535.67;1619474;87;25403;-84
2021/10/08 10:16:57;;;;;;;;;;;;;;;7.36;85.97;99539.55;1612806;87;24520;-84
2021/10/08 10:19:24;;;;;;;;;;;;;;;7.56;86.10;99537.00;1599204;87;20261;-84
2021/10/08 10:21:52;;;;;;;;;;;;;;;7.79;86.22;99536.08;1615675;87;25789;-89
2021/10/08 10:24:19;;;;;;;;;;;;;;;7.98;86.32;99537.84;1617076;86;22083;-88
2021/10/08 10:26:45;;;;;;;;;;;;;;;8.12;86.41;99535.13;1620228;86;25996;-87
2021/10/08 10:29:12;;;;;;;;;;;;;;;8.26;86.51;99539.29;1618949;87;20308;-84
2021/10/08 10:31:38;;;;;;;;;;;;;;;8.36;86.56;99532.80;1621603;87;20306;-87
2021/10/08 10:34:07;;;;;;;;;;;;;;;8.44;86.59;99533.32;1612705;87;24745;-88
2021/10/08 10:36:43;;;;;;;;;;;;;;;8.51;86.61;99525.59;1621922;87;22084;-84
2021/10/08 10:39:13;;;;;;;;;;;;;;;8.61;86.60;99533.44;1619805;87;26142;-88
2021/10/08 10:41:40;;;;;;;;;;;;;;;8.74;86.60;99535.02;1623238;87;24511;-88
2021/10/08 10:44:18;;;;;;;;;;;;;;;8.84;86.60;99530.25;1622178;87;20342;-89
2021/10/08 10:47:01;;;;;;;;;;;;;;;8.88;86.56;99527.44;1621598;87;25648;-87
2021/10/08 10:51:58;;;;;;;;;;;;;;;9.00;86.45;99521.63;1613911;87;26126;-84
2021/10/08 10:54:39;;;;;;;;;;;;;;;9.04;86.40;99523.20;1621922;87;24471;-84
2021/10/08 10:57:06;;;;;;;;;;;;;;;9.21;86.37;99528.95;1623169;87;20253;-83
2021/10/08 10:59:34;;;;;;;;;;;;;;;9.44;86.37;99518.69;1615145;86;24797;-89
2021/10/08 11:02:09;;;;;;;;;;;;;;;9.52;86.36;99525.72;1616108;87;22021;-85
2021/10/08 11:04:41;;;;;;;;;;;;;;;9.53;86.29;99516.96;1619615;87;26085;-84
2021/10/08 11:07:13;;;;;;;;;;;;;;;9.56;86.22;99521.57;1621054;87;24459;-84
2021/10/08 11:09:40;;;;;;;;;;;;;;;9.57;86.10;99515.43;1621012;86;20511;-88
2021/10/08 11:12:27;;;;;;;;;;;;;;;9.63;86.02;99516.90;1626539;87;24977;-88
2021/10/08 11:15:12;;;;;;;;;;;;;;;9.72;85.95;99520.81;1619061;87;22350;-87
2021/10/08 11:17:55;;;;;;;;;;;;;;;9.75;85.85;99520.69;1628392;87;26751;-89
2021/10/08 11:20:32;;;;;;;;;;;;;;;9.75;85.73;99521.99;1611825;87;24490;-85
2021/10/08 11:23:00;;;;;;;;;;;;;;;9.74;85.61;99506.77;1617589;87;20299;-85
2021/10/08 11:25:28;;;;;;;;;;;;;;;9.81;85.52;99508.16;1622595;87;24865;-88
2021/10/08 11:27:55;;;;;;;;;;;;;;;9.86;85.38;99511.86;1621026;86;22536;-87
2021/10/08 11:30:25;;;;;;;;;;;;;;;9.91;85.23;99509.39;1618544;87;26172;-87
2021/10/08 11:32:58;;;;;;;;;;;;;;;9.95;85.09;99503.54;1620010;87;20604;-88
2021/10/08 11:35:31;;;;;;;;;;;;;;;9.98;84.87;99500.78;1623015;87;20464;-83
2021/10/08 11:37:58;;;;;;;;;;;;;;;10.00;84.62;99508.92;1613176;87;24737;-88
2021/10/08 11:40:28;;;;;;;;;;;;;;;10.03;84.37;99500.94;1614240;87;22229;-89
2021/10/08 11:43:01;;;;;;;;;;;;;;;10.09;84.15;99501.91;1622313;87;26075;-88
2021/10/08 11:45:40;;;;;;;;;;;;;;;10.16;83.92;99505.52;1620053;87;25362;-88
2021/10/08 11:48:12;;;;;;;;;;;;;;;10.27;83.79;99501.47;1616779;87;20453;-86
2021/10/08 11:53:06;;;;;;;;;;;;;;;10.33;83.35;99502.92;1625641;87;22169;-84
2021/10/08 11:55:40;;;;;;;;;;;;;;;10.39;83.11;99498.69;1623355;87;26131;-82
2021/10/08 11:58:08;;;;;;;;;;;;;;;10.40;82.83;99506.47;1614451;87;24700;-82
2021/10/08 12:00:36;;;;;;;;;;;;;;;10.44;82.57;99504.06;1619580;87;20251;-83
2021/10/08 12:03:04;;;;;;;;;;;;;;;10.48;82.31;99496.88;1630580;87;24775;-87
2021/10/08 12:05:50;;;;;;;;;;;;;;;10.53;82.05;99500.59;1630384;87;22034;-88
2021/10/08 12:08:24;;;;;;;;;;;;;;;10.55;81.82;99501.34;1625578;87;26055;-87
2021/10/08 12:10:55;;;;;;;;;;;;;;;10.65;81.54;99498.61;1628016;87;24414;-86
2021/10/08 12:13:24;;;;;;;;;;;;;;;10.62;81.22;99489.17;1616674;87;20297;-88
2021/10/08 12:15:53;;;;;;;;;;;;;;;10.56;80.85;99495.19;1618891;87;25566;-88
2021/10/08 12:18:21;;;;;;;;;;;;;;;10.54;80.49;99497.03;1629071;87;23225;-88
2021/10/08 12:20:49;;;;;;;;;;;;;;;10.56;80.20;99492.11;1628440;87;26173;-83
2021/10/08 12:23:24;;;;;;;;;;;;;;;10.59;79.93;99493.70;1621354;87;24619;-87
2021/10/08 12:25:48;;;;;;;;;;;;;;;10.62;79.69;99494.41;1608420;86;20307;-83
2021/10/08 12:28:16;;;;;;;;;;;;;;;10.63;79.44;99484.32;1616319;87;25283;-83
2021/10/08 12:30:50;;;;;;;;;;;;;;;10.65;79.17;99488.14;1626696;87;22003;-83
2021/10/08 12:33:33;;;;;;;;;;;;;;;10.57;78.85;99495.11;1628453;86;26683;-86
2021/10/08 12:36:12;;;;;;;;;;;;;;;10.48;78.38;99498.20;1630325;87;24459;-88
2021/10/08 12:38:56;;;;;;;;;;;;;;;10.42;77.99;99503.28;1628911;87;20263;-83
2021/10/08 12:41:24;;;;;;;;;;;;;;;10.40;77.63;99499.92;1633528;87;24799;-83
2021/10/08 12:43:52;;;;;;;;;;;;;;;10.44;77.33;99506.68;1623053;87;22080;-88
2021/10/08 12:46:21;;;;;;;;;;;;;;;10.51;77.14;99500.67;1600261;87;25703;-88
2021/10/08 12:48:58;;;;;;;;;;;;;;;10.56;76.98;99500.42;1620037;87;24414;-86
2021/10/08 12:51:24;;;;;;;;;;;;;;;10.57;76.74;99502.12;1626370;87;20466;-83
2021/10/08 12:53:52;;;;;;;;;;;;;;;10.63;76.54;99504.41;1630152;87;24786;-87
2021/10/08 12:56:22;;;;;;;;;;;;;;;10.67;76.40;99498.08;1614902;87;21992;-83
2021/10/08 12:58:51;;;;;;;;;;;;;;;10.64;76.16;99494.30;1621769;87;26065;-86
2021/10/08 13:01:17;;;;;;;;;;;;;;;10.61;75.89;99502.33;1623274;86;24538;-86
2021/10/08 13:03:44;;;;;;;;;;;;;;;10.59;75.64;99493.23;1612267;87;20534;-86
2021/10/08 13:06:13;;;;;;;;;;;;;;;10.58;75.44;99496.81;1616368;87;24925;-86